首页
METAR-TAF:

METAR-TAF

机场 :

Hancock, 密歇根州, 美国

纬度: 47-10-06N, 经度: 088-29-20W, 海拔: 334米

当前天气观测

该预报发布于25分钟前的15:53 UTC
风速12节,风向西北
温度 -8°C
湿度 67%
气压 1034 hPa
能見度: 16.1公里
天空无云

METAR: KCMX 201553Z AUTO 31012KT 10SM CLR M08/M13 A3053 RMK AO2 SLP361 T10781133 $

时间: 11:18 (16:18 UTC)

预报

该预报发布于4小时和45分钟前的11:33 UTC
预报有效从20日的 12点(UTC)到 21日的 12点(UTC)
风速7节,风向西北
能見度: 10公里
散云层高于1700英尺
从 21日的 0300点(UTC)
风速14节,风向西转西南
能見度: 10公里
多云层高于1500英尺

TAF: KCMX 201133Z 2012/2112 31007KT P6SM SCT017 FM210300 25014KT P6SM BKN015

超过4000个机场的气象观测和天气预报(METAR&TAF报告)。

可查询的气象台以黄色和红色小点在地图上表示。

将鼠标移到小点上方,可查看气象台名称。

然后点击查看天气观测和预报。

如需切换地图:点击带黑十字的绿色按钮放大地图;点击带横线的绿色按钮缩小地图;或者点击绿色箭头查看邻近地区的地图。


METAR-TAF: